Time;durP1;ratioP1;P1;durP2;ratioP2;P2;SDS_P1;SDS_P2;PMS_P1;PMS_P2;Temp;Humidity;BMP_temperature;BMP_pressure;BME280_temperature;BME280_humidity;BME280_pressure;Samples;Min_cycle;Max_cycle;Signal;HPM_P1;HPM_P2
2022/05/12 00:01:03;;;;;;;1.90;1.25;;;18.40;99.90;;;;;;5113862;27;20116;-78
2022/05/12 00:03:35;;;;;;;1.98;0.82;;;18.30;99.90;;;;;;5112297;27;20049;-78
2022/05/12 00:06:08;;;;;;;2.08;1.00;;;18.30;99.90;;;;;;5125670;27;20051;-78
2022/05/12 00:08:48;;;;;;;6.10;1.35;;;18.20;99.90;;;;;;5103381;27;20074;-79
2022/05/12 00:11:16;;;;;;;4.45;1.17;;;18.20;99.90;;;;;;5113284;27;20043;-78
2022/05/12 00:13:50;;;;;;;6.03;1.85;;;18.10;99.90;;;;;;5112656;27;21001;-78
2022/05/12 00:16:27;;;;;;;1.52;1.00;;;18.10;99.90;;;;;;5112884;27;20071;-78
2022/05/12 00:18:58;;;;;;;2.20;1.00;;;17.80;99.90;;;;;;5126801;27;20063;-78
2022/05/12 00:21:40;;;;;;;3.33;1.23;;;18.00;99.90;;;;;;5103328;27;20622;-78
2022/05/12 00:24:09;;;;;;;1.13;0.90;;;18.00;99.90;;;;;;5107141;27;20087;-78
2022/05/12 00:26:43;;;;;;;1.40;1.10;;;18.40;99.90;;;;;;5091384;27;20313;-78
2022/05/12 00:29:09;;;;;;;2.03;1.00;;;18.00;99.90;;;;;;5109366;27;20109;-78
2022/05/12 00:31:49;;;;;;;2.97;1.23;;;17.90;99.90;;;;;;5107203;27;20670;-78
2022/05/12 00:34:29;;;;;;;2.00;1.27;;;17.70;99.90;;;;;;5106463;27;20517;-78
2022/05/12 00:37:00;;;;;;;4.50;1.30;;;17.90;99.90;;;;;;5109692;27;20040;-78
2022/05/12 00:39:29;;;;;;;1.30;0.87;;;17.70;99.90;;;;;;5084539;27;20044;-78
2022/05/12 00:41:55;;;;;;;1.30;1.10;;;17.90;99.90;;;;;;5103018;27;20044;-78
2022/05/12 00:44:21;;;;;;;2.55;1.60;;;17.80;99.90;;;;;;5106885;27;20050;-78
2022/05/12 00:46:52;;;;;;;2.00;0.82;;;17.80;99.90;;;;;;5125354;27;20093;-78
2022/05/12 00:49:23;;;;;;;1.92;1.13;;;17.80;99.90;;;;;;5110802;27;20039;-78
2022/05/12 00:51:59;;;;;;;1.63;1.10;;;17.80;99.90;;;;;;5103769;27;20101;-78
2022/05/12 00:54:45;;;;;;;2.75;1.00;;;17.80;99.90;;;;;;5101656;27;20047;-78
2022/05/12 00:57:35;;;;;;;2.95;1.48;;;18.30;99.90;;;;;;5107512;27;20074;-79
2022/05/12 01:00:11;;;;;;;3.60;2.72;;;17.80;99.90;;;;;;5104872;27;20043;-78
2022/05/12 01:03:04;;;;;;;6.72;1.30;;;17.90;99.90;;;;;;5107814;27;20888;-78
2022/05/12 01:05:32;;;;;;;;;;;17.90;99.90;;;;;;5111609;27;20044;-78
2022/05/12 01:07:59;;;;;;;2.40;1.13;;;17.60;99.90;;;;;;5112966;27;19976;-77
2022/05/12 01:10:34;;;;;;;3.55;1.40;;;17.30;99.90;;;;;;5108844;27;20067;-78
2022/05/12 01:13:05;;;;;;;2.13;1.15;;;17.60;99.90;;;;;;5111338;27;20126;-78
2022/05/12 01:15:31;;;;;;;2.53;1.40;;;17.60;99.90;;;;;;5107871;27;20612;-78
2022/05/12 01:18:15;;;;;;;2.60;1.20;;;17.60;99.90;;;;;;5102721;27;20134;-78
2022/05/12 01:20:41;;;;;;;2.53;1.48;;;17.50;99.90;;;;;;5125461;27;20089;-78
2022/05/12 01:23:48;;;;;;;2.22;1.42;;;17.50;99.90;;;;;;5108548;27;20044;-77
2022/05/12 01:26:17;;;;;;;3.33;1.10;;;18.00;99.90;;;;;;5123619;27;20863;-78
2022/05/12 01:28:47;;;;;;;3.20;1.40;;;17.40;99.90;;;;;;5102626;27;20044;-78
2022/05/12 01:31:30;;;;;;;4.45;1.58;;;17.40;99.90;;;;;;5105795;27;20187;-76
2022/05/12 01:33:59;;;;;;;4.28;1.35;;;17.40;99.90;;;;;;5109560;27;20046;-78
2022/05/12 01:36:25;;;;;;;3.08;2.10;;;17.30;99.90;;;;;;5102901;27;20042;-78
2022/05/12 01:38:52;;;;;;;3.63;1.52;;;17.30;99.90;;;;;;5109858;27;20067;-79
2022/05/12 01:41:18;;;;;;;3.50;1.58;;;17.30;99.90;;;;;;5126886;27;20070;-78
2022/05/12 01:43:44;;;;;;;9.38;2.20;;;17.20;99.90;;;;;;5131795;27;20071;-78
2022/05/12 01:46:10;;;;;;;3.25;1.50;;;17.30;99.90;;;;;;5128278;27;21395;-78
2022/05/12 01:48:36;;;;;;;4.32;1.70;;;17.30;99.90;;;;;;5125716;27;20043;-81
2022/05/12 01:51:01;;;;;;;4.28;1.92;;;17.30;99.90;;;;;;5126080;27;20043;-78
2022/05/12 01:53:30;;;;;;;5.65;1.90;;;17.30;99.90;;;;;;5131077;27;20031;-77
2022/05/12 01:55:57;;;;;;;4.65;1.38;;;17.20;99.90;;;;;;5127439;27;20031;-77
2022/05/12 01:58:23;;;;;;;5.05;2.83;;;17.20;99.90;;;;;;5124421;27;20047;-78
2022/05/12 02:00:49;;;;;;;10.90;2.40;;;17.30;99.90;;;;;;5123750;27;20037;-77
2022/05/12 02:03:15;;;;;;;4.38;1.50;;;17.20;99.90;;;;;;5119645;27;20056;-78
2022/05/12 02:05:41;;;;;;;7.05;1.60;;;17.10;99.90;;;;;;5128585;27;20074;-77
2022/05/12 02:08:09;;;;;;;6.72;2.47;;;17.10;99.90;;;;;;5124259;27;20043;-78
2022/05/12 02:10:39;;;;;;;5.28;2.72;;;17.10;99.90;;;;;;5128876;27;20578;-77
2022/05/12 02:13:10;;;;;;;5.43;1.60;;;17.10;99.90;;;;;;5128029;27;20046;-77
2022/05/12 02:15:40;;;;;;;4.18;1.73;;;17.10;99.90;;;;;;5130753;27;20130;-77
2022/05/12 02:18:20;;;;;;;6.32;3.03;;;17.10;99.90;;;;;;5115898;27;20192;-77
2022/05/12 02:20:58;;;;;;;6.97;1.70;;;17.00;99.90;;;;;;5131114;27;20046;-77
2022/05/12 02:23:34;;;;;;;3.28;1.83;;;17.00;99.90;;;;;;5124688;27;20322;-77
2022/05/12 02:26:12;;;;;;;8.77;1.77;;;17.00;99.90;;;;;;5114029;27;20598;-77
2022/05/12 02:28:49;;;;;;;5.22;3.38;;;16.70;99.90;;;;;;5113845;27;20165;-77
2022/05/12 02:31:18;;;;;;;8.50;2.00;;;16.90;99.90;;;;;;5130540;27;20035;-77
2022/05/12 02:33:49;;;;;;;3.50;1.27;;;16.90;99.90;;;;;;5129099;27;20436;-77
2022/05/12 02:36:18;;;;;;;8.52;1.73;;;17.00;99.90;;;;;;5113062;27;20039;-77
2022/05/12 02:38:58;;;;;;;10.07;2.40;;;16.80;99.90;;;;;;5108490;27;20274;-78
2022/05/12 02:41:29;;;;;;;5.32;2.20;;;16.70;99.90;;;;;;5105542;27;20063;-78
2022/05/12 02:44:17;;;;;;;6.88;2.15;;;16.60;99.90;;;;;;5115922;27;20073;-77
2022/05/12 02:46:48;;;;;;;7.60;2.08;;;16.70;99.90;;;;;;5113711;27;20104;-77
2022/05/12 02:49:20;;;;;;;1.88;1.15;;;16.60;99.90;;;;;;5115933;27;20039;-77
2022/05/12 02:51:47;;;;;;;5.38;1.42;;;16.60;99.90;;;;;;5111810;27;20043;-77
2022/05/12 02:54:20;;;;;;;2.90;2.03;;;16.40;99.90;;;;;;5114573;27;20039;-77
2022/05/12 02:56:52;;;;;;;8.00;3.22;;;16.60;99.90;;;;;;5107231;27;20192;-77
2022/05/12 02:59:18;;;;;;;5.38;1.75;;;16.60;99.90;;;;;;5134963;27;20454;-79
2022/05/12 03:01:49;;;;;;;3.85;1.50;;;16.60;99.90;;;;;;5104730;27;20039;-78
2022/05/12 03:04:26;;;;;;;4.20;1.55;;;16.60;99.90;;;;;;5114469;27;20031;-78
2022/05/12 03:06:52;;;;;;;4.05;1.25;;;16.60;99.90;;;;;;5136247;27;20395;-79
2022/05/12 03:09:18;;;;;;;3.97;1.88;;;16.60;99.90;;;;;;5123904;27;20048;-78
2022/05/12 03:11:49;;;;;;;2.95;1.42;;;16.60;99.90;;;;;;5130023;27;20042;-78
2022/05/12 03:14:21;;;;;;;2.50;1.67;;;16.60;99.90;;;;;;5131183;27;20035;-79
2022/05/12 03:16:53;;;;;;;4.43;1.63;;;16.60;99.90;;;;;;5132672;27;20441;-78
2022/05/12 03:19:21;;;;;;;6.65;1.40;;;16.60;99.90;;;;;;5131798;27;20060;-78
2022/05/12 03:21:52;;;;;;;3.70;1.20;;;16.60;99.90;;;;;;5111274;27;20043;-78
2022/05/12 03:24:18;;;;;;;2.10;1.20;;;16.50;99.90;;;;;;5121320;27;20039;-77
2022/05/12 03:26:46;;;;;;;4.75;1.77;;;15.70;99.90;;;;;;5121772;27;20039;-78
2022/05/12 03:29:21;;;;;;;5.40;1.27;;;16.40;99.90;;;;;;5132604;27;20071;-78
2022/05/12 03:31:52;;;;;;;4.15;2.03;;;16.40;99.90;;;;;;5124870;27;20479;-78
2022/05/12 03:34:18;;;;;;;6.68;1.60;;;16.40;99.90;;;;;;5128903;27;20086;-78
2022/05/12 03:36:54;;;;;;;6.13;2.95;;;16.40;99.90;;;;;;5121851;27;20525;-78
2022/05/12 03:39:28;;;;;;;5.00;1.25;;;16.40;99.90;;;;;;5113696;27;20289;-78
2022/05/12 03:42:02;;;;;;;4.15;1.02;;;16.30;99.90;;;;;;5110633;27;20058;-78
2022/05/12 03:44:46;;;;;;;6.53;1.63;;;16.30;99.90;;;;;;5129612;27;20051;-78
2022/05/12 03:47:20;;;;;;;5.63;1.80;;;16.30;99.90;;;;;;5104319;27;20035;-78
2022/05/12 03:49:51;;;;;;;3.90;1.20;;;16.50;99.90;;;;;;5132105;27;20547;-78
2022/05/12 03:52:29;;;;;;;3.17;1.20;;;16.40;99.90;;;;;;5110765;27;20510;-78
2022/05/12 03:55:00;;;;;;;5.93;1.60;;;16.40;99.90;;;;;;5112632;27;20035;-78
2022/05/12 03:57:35;;;;;;;6.43;1.50;;;16.40;99.90;;;;;;5132787;27;20100;-78
2022/05/12 04:00:09;;;;;;;4.28;1.90;;;16.40;99.90;;;;;;5113127;27;20783;-77
2022/05/12 04:02:36;;;;;;;2.45;1.40;;;16.40;99.90;;;;;;5127621;27;20579;-78
2022/05/12 04:05:06;;;;;;;4.38;1.45;;;16.30;99.90;;;;;;5105652;27;20043;-78
2022/05/12 04:07:42;;;;;;;10.35;1.83;;;16.30;99.90;;;;;;5132551;27;20063;-78
2022/05/12 04:10:12;;;;;;;3.50;1.10;;;15.30;99.90;;;;;;5112036;27;20063;-78
2022/05/12 04:12:38;;;;;;;5.80;1.83;;;16.30;99.90;;;;;;5103095;27;20039;-78
2022/05/12 04:15:16;;;;;;;3.95;1.40;;;16.30;99.90;;;;;;5109891;27;20161;-77
2022/05/12 04:18:03;;;;;;;10.25;1.77;;;16.30;99.90;;;;;;5107183;27;20063;-84
2022/05/12 04:24:00;;;;;;;4.70;1.42;;;16.40;99.90;;;;;;5128280;27;20053;-77
2022/05/12 04:26:28;;;;;;;6.45;1.63;;;16.20;99.90;;;;;;5110649;27;20690;-78
2022/05/12 04:28:55;;;;;;;2.75;1.42;;;16.30;99.90;;;;;;5107845;27;20046;-79
2022/05/12 04:31:27;;;;;;;5.20;1.60;;;16.30;99.90;;;;;;5117059;27;20132;-78
2022/05/12 04:36:58;;;;;;;4.70;1.48;;;16.20;99.90;;;;;;5137716;27;20039;-78
2022/05/12 04:39:38;;;;;;;1.80;1.13;;;16.30;99.90;;;;;;5115737;27;20881;-79
2022/05/12 04:42:10;;;;;;;2.75;1.20;;;16.30;99.90;;;;;;5132144;27;20078;-79
2022/05/12 04:44:40;;;;;;;5.95;3.92;;;16.20;99.90;;;;;;5113456;27;20047;-79
2022/05/12 04:47:15;;;;;;;5.00;1.67;;;16.10;99.90;;;;;;5117047;27;20046;-79
2022/05/12 04:49:52;;;;;;;3.15;1.50;;;15.60;99.90;;;;;;5115525;27;20054;-81
2022/05/12 04:52:24;;;;;;;10.65;2.08;;;15.90;99.90;;;;;;5116618;27;20077;-79
2022/05/12 04:55:01;;;;;;;4.18;1.80;;;15.80;99.90;;;;;;5112479;27;21181;-82
2022/05/12 04:57:41;;;;;;;5.13;1.73;;;16.30;99.90;;;;;;5113350;27;20136;-79
2022/05/12 05:00:24;;;;;;;6.20;1.33;;;15.80;99.90;;;;;;5111224;27;21208;-79
2022/05/12 05:02:50;;;;;;;7.82;1.25;;;15.80;99.90;;;;;;5123570;27;20046;-79
2022/05/12 05:05:24;;;;;;;5.97;1.70;;;15.90;99.90;;;;;;5103992;27;20043;-79
2022/05/12 05:08:02;;;;;;;7.07;1.70;;;15.90;99.90;;;;;;5105268;27;20529;-79
2022/05/12 05:10:57;;;;;;;7.60;2.33;;;15.90;99.90;;;;;;5131921;27;20133;-79
2022/05/12 05:13:26;;;;;;;2.40;1.30;;;16.30;99.90;;;;;;5137383;27;20457;-77
2022/05/12 05:15:56;;;;;;;4.65;1.88;;;15.90;99.90;;;;;;5116674;27;20043;-78
2022/05/12 05:18:27;;;;;;;4.82;1.63;;;15.30;99.90;;;;;;5136531;27;20596;-77
2022/05/12 05:20:53;;;;;;;7.72;1.63;;;16.00;99.90;;;;;;5134681;27;20900;-77
2022/05/12 05:23:21;;;;;;;6.97;1.38;;;16.10;99.90;;;;;;5126413;27;20047;-76
2022/05/12 05:25:48;;;;;;;4.30;2.13;;;16.10;99.90;;;;;;5124299;27;20046;-77
2022/05/12 05:28:15;;;;;;;5.57;1.38;;;16.10;99.90;;;;;;5113564;27;20476;-77
2022/05/12 05:30:44;;;;;;;5.18;1.67;;;16.10;99.90;;;;;;5115917;27;20115;-77
2022/05/12 05:33:12;;;;;;;3.33;1.70;;;16.10;99.90;;;;;;5126274;27;20107;-77
2022/05/12 05:35:40;;;;;;;7.47;1.80;;;16.20;99.90;;;;;;5109447;27;20082;-77
2022/05/12 05:38:10;;;;;;;2.55;1.08;;;16.10;99.90;;;;;;5134034;27;20031;-77
2022/05/12 05:40:47;;;;;;;6.88;1.83;;;16.20;99.90;;;;;;5123599;27;20055;-77
2022/05/12 05:43:16;;;;;;;3.90;1.05;;;16.20;99.90;;;;;;5123137;27;20134;-77
2022/05/12 05:45:45;;;;;;;9.32;1.50;;;16.10;99.90;;;;;;5099111;27;20039;-77
2022/05/12 05:48:25;;;;;;;4.80;1.40;;;16.30;99.90;;;;;;5106771;27;20730;-77
2022/05/12 05:53:42;;;;;;;4.78;1.67;;;16.20;99.90;;;;;;5129111;27;20071;-78
2022/05/12 05:56:17;;;;;;;5.68;1.50;;;16.20;99.90;;;;;;5127508;27;20115;-77
2022/05/12 05:58:49;;;;;;;3.22;2.10;;;16.20;99.90;;;;;;5116153;27;20031;-77
2022/05/12 06:01:16;;;;;;;2.92;1.85;;;16.20;99.90;;;;;;5110191;27;20576;-78
2022/05/12 06:03:45;;;;;;;9.07;1.55;;;;;;;;;;5117330;27;20514;-80
2022/05/12 06:06:19;;;;;;;7.28;2.20;;;;;;;;;;5105339;27;20043;-79
2022/05/12 06:08:46;;;;;;;7.30;1.60;;;;;;;;;;5098172;27;20143;-78
2022/05/12 06:11:15;;;;;;;5.07;2.00;;;;;;;;;;5109876;27;20047;-79
2022/05/12 06:13:48;;;;;;;5.82;2.17;;;;;;;;;;5101173;27;20045;-80
2022/05/12 06:16:17;;;;;;;9.60;3.22;;;;;;;;;;5105268;27;20062;-78
2022/05/12 06:18:48;;;;;;;5.75;1.48;;;;;;;;;;5104678;27;20136;-78
2022/05/12 06:21:16;;;;;;;;;;;;;;;;;;5101711;27;20127;-78
2022/05/12 06:23:45;;;;;;;4.43;1.60;;;;;;;;;;5127688;27;19927;-78
2022/05/12 06:26:13;;;;;;;6.47;1.52;;;;;;;;;;5103141;27;22251;-78
2022/05/12 06:28:46;;;;;;;6.80;1.67;;;;;;;;;;5100105;27;20517;-77
2022/05/12 06:31:19;;;;;;;4.60;1.75;;;;;;;;;;5116898;27;20055;-78
2022/05/12 06:33:48;;;;;;;6.32;2.00;;;;;;;;;;5126872;27;20058;-79
2022/05/12 06:36:22;;;;;;;8.43;2.45;;;;;;;;;;5125062;27;20077;-78
2022/05/12 06:38:53;;;;;;;8.18;2.05;;;;;;;;;;5104605;27;20074;-78
2022/05/12 06:41:20;;;;;;;4.93;1.43;;;;;;;;;;5101964;27;20044;-79
2022/05/12 06:43:49;;;;;;;7.05;1.75;;;;;;;;;;5113769;27;20115;-78
2022/05/12 06:46:20;;;;;;;4.70;1.85;;;;;;;;;;5101981;27;20078;-79
2022/05/12 06:48:54;;;;;;;6.90;2.00;;;;;;;;;;5107168;27;20139;-79
2022/05/12 06:51:20;;;;;;;7.85;2.40;;;;;;;;;;5112984;27;20047;-78
2022/05/12 06:53:51;;;;;;;5.30;1.63;;;;;;;;;;5104960;27;20139;-79
2022/05/12 06:56:25;;;;;;;6.40;1.58;;;;;;;;;;5106154;27;20103;-79
2022/05/12 06:58:51;;;;;;;15.90;2.25;;;;;;;;;;5106171;27;20042;-78
2022/05/12 07:01:20;;;;;;;3.03;1.63;;;;;;;;;;5113004;27;20529;-78
2022/05/12 07:03:46;;;;;;;10.93;2.47;;;;;;;;;;5112194;27;20100;-78
2022/05/12 07:06:18;;;;;;;8.52;2.80;;;;;;;;;;5113315;27;20048;-79
2022/05/12 07:08:51;;;;;;;3.50;2.17;;;;;;;;;;5112868;27;20048;-79
2022/05/12 07:11:19;;;;;;;7.70;2.72;;;;;;;;;;5114123;27;20804;-79
2022/05/12 07:13:46;;;;;;;9.45;1.95;;;;;;;;;;5110871;27;20120;-79
2022/05/12 07:16:18;;;;;;;6.57;1.77;;;;;;;;;;5130335;27;20195;-79
2022/05/12 07:18:44;;;;;;;;;;;;;;;;;;5114483;27;20043;-79
2022/05/12 07:26:57;;;;;;;6.32;1.60;;;;;;;;;;5112771;27;20898;-78
2022/05/12 07:29:38;;;;;;;7.10;1.70;;;;;;;;;;5108182;27;20041;-78
2022/05/12 07:32:10;;;;;;;9.35;1.55;;;;;;;;;;5107555;27;20588;-78
2022/05/12 07:34:56;;;;;;;5.22;1.63;;;;;;;;;;5111823;27;20771;-77
2022/05/12 07:37:25;;;;;;;8.48;2.05;;;;;;;;;;5113472;27;20154;-78
2022/05/12 07:39:54;;;;;;;5.60;2.45;;;;;;;;;;5119561;27;20128;-79
2022/05/12 07:42:39;;;;;;;;;;;;;;;;;;;;;
2022/05/12 07:45:20;;;;;;;3.28;1.33;;;;;;;;;;5135759;27;41937;-79
2022/05/12 07:47:56;;;;;;;3.80;1.30;;;;;;;;;;5109235;27;20094;-79
2022/05/12 07:50:38;;;;;;;5.07;1.67;;;;;;;;;;5111815;27;20043;-79
2022/05/12 07:53:09;;;;;;;6.15;1.20;;;;;;;;;;5117516;27;20220;-79
2022/05/12 07:55:53;;;;;;;;;;;;;;;;;;;;;
2022/05/12 07:58:23;;;;;;;4.95;2.53;;;;;;;;;;5136441;27;45486;-78
2022/05/12 08:00:50;;;;;;;6.57;1.38;;;;;;;;;;5136339;27;20049;-78
2022/05/12 08:03:29;;;;;;;;;;;;;;;;;;;;;
2022/05/12 08:06:07;;;;;;;3.50;1.38;;;;;;;;;;5135540;27;43325;-80
2022/05/12 08:08:39;;;;;;;5.55;2.47;;;;;;;;;;5137701;27;20045;-79
2022/05/12 08:11:08;;;;;;;3.75;2.53;;;;;;;;;;5115106;27;20058;-79
2022/05/12 08:13:48;;;;;;;4.50;2.38;;;;;;;;;;5113542;27;20140;-79
2022/05/12 08:16:17;;;;;;;4.00;3.55;;;;;;;;;;5111721;27;20923;-80
2022/05/12 08:18:46;;;;;;;3.70;1.50;;;;;;;;;;5111698;27;20054;-79
2022/05/12 08:21:31;;;;;;;6.47;1.80;;;;;;;;;;5117963;27;20048;-81
2022/05/12 08:24:02;;;;;;;8.93;3.97;;;;;;;;;;5116063;27;20061;-79
2022/05/12 08:26:35;;;;;;;9.30;1.70;;;;;;;;;;5111096;27;20101;-79
2022/05/12 08:29:23;;;;;;;4.57;1.77;;;;;;;;;;5110666;27;20461;-78
2022/05/12 08:31:58;;;;;;;6.18;1.60;;;;;;;;;;5117273;27;20558;-79
2022/05/12 08:34:25;;;;;;;16.65;3.55;;;;;;;;;;5127717;27;20130;-78
2022/05/12 08:37:26;;;;;;;6.03;2.70;;;;;;;;;;5135075;27;20489;-79
2022/05/12 08:40:00;;;;;;;3.60;1.33;;;;;;;;;;5046057;28;21784;-79
2022/05/12 08:42:49;;;;;;;2.50;1.40;;;;;;;;;;5045244;28;20041;-80
2022/05/12 08:45:27;;;;;;;;;;;;;;;;;;;;;
2022/05/12 08:47:57;;;;;;;4.57;1.60;;;;;;;;;;5062393;28;43321;-79
2022/05/12 08:50:37;;;;;;;6.05;1.23;;;;;;;;;;5103621;27;20051;-79
2022/05/12 08:53:38;;;;;;;9.43;2.75;;;16.30;99.90;;;;;;5133377;27;20050;-79
2022/05/12 08:59:48;;;;;;;8.23;1.63;;;17.80;99.90;;;;;;5133330;27;20503;-80
2022/05/12 09:02:41;;;;;;;4.90;2.22;;;17.90;99.90;;;;;;5134661;27;20039;-80
2022/05/12 09:05:28;;;;;;;6.55;1.63;;;18.00;99.90;;;;;;5138261;27;20050;-79
2022/05/12 09:08:16;;;;;;;15.23;1.73;;;18.10;99.90;;;;;;5133441;27;20042;-80
2022/05/12 09:11:27;;;;;;;9.13;1.38;;;18.00;99.90;;;;;;5134603;27;20043;-79
2022/05/12 09:14:06;;;;;;;2.90;1.10;;;18.20;99.90;;;;;;5098469;27;20123;-79
2022/05/12 09:16:36;;;;;;;7.88;1.83;;;;;;;;;;5114627;27;20058;-80
2022/05/12 09:19:22;;;;;;;;;;;;;;;;;;;;;
2022/05/12 09:22:07;;;;;;;6.05;1.33;;;;;;;;;;5132865;27;43694;-79
2022/05/12 09:24:55;;;;;;;3.50;1.65;;;;;;;;;;5117241;27;20327;-80
2022/05/12 09:27:47;;;;;;;5.72;2.17;;;;;;;;;;5138872;27;20046;-80
2022/05/12 09:30:33;;;;;;;5.07;1.73;;;;;;;;;;5119828;27;20059;-80
2022/05/12 09:33:03;;;;;;;3.47;1.50;;;;;;;;;;5111470;27;20043;-79
2022/05/12 09:35:35;;;;;;;2.03;1.63;;;;;;;;;;5118890;27;20043;-79
2022/05/12 09:38:08;;;;;;;;;;;;;;;;;;5119460;27;20555;-79
2022/05/12 09:40:50;;;;;;;;;;;;;;;;;;;;;
2022/05/12 09:43:45;;;;;;;5.03;2.65;;;;;;;;;;5138134;27;42702;-79
2022/05/12 09:46:17;;;;;;;3.78;1.15;;;;;;;;;;5120085;27;20687;-79
2022/05/12 09:49:15;;;;;;;3.80;1.10;;;;;;;;;;5112270;27;20039;-79
2022/05/12 09:52:08;;;;;;;5.95;1.55;;;;;;;;;;5077901;27;20047;-79
2022/05/12 09:54:38;;;;;;;3.65;1.08;;;;;;;;;;5112744;27;20066;-79
2022/05/12 09:57:14;;;;;;;4.90;1.48;;;;;;;;;;5111244;27;20063;-80
2022/05/12 10:00:06;;;;;;;7.88;0.93;;;;;;;;;;5139085;27;20035;-79
2022/05/12 10:08:35;;;;;;;2.88;1.30;;;;;;;;;;5135355;27;20043;-79
2022/05/12 10:11:08;;;;;;;5.55;1.55;;;;;;;;;;5113791;27;20063;-80
2022/05/12 10:13:53;;;;;;;4.55;1.20;;;;;;;;;;5116399;27;20699;-78
2022/05/12 10:16:26;;;;;;;3.25;1.08;;;;;;;;;;5112240;27;20054;-79
2022/05/12 10:19:05;;;;;;;2.13;1.00;;;;;;;;;;5111912;27;20128;-78
2022/05/12 10:21:53;;;;;;;1.63;0.80;;;;;;;;;;5114914;27;20134;-79
2022/05/12 10:24:28;;;;;;;8.52;1.90;;;;;;;;;;5132663;27;20039;-79
2022/05/12 10:27:19;;;;;;;1.40;0.90;;;;;;;;;;5110577;27;20051;-79
2022/05/12 10:30:18;;;;;;;2.50;1.02;;;;;;;;;;5116737;27;20134;-78
2022/05/12 10:32:43;;;;;;;3.75;1.40;;;;;;;;;;5137129;27;20031;-79
2022/05/12 10:35:42;;;;;;;4.50;1.30;;;;;;;;;;5118023;27;20043;-78
2022/05/12 10:38:15;;;;;;;2.30;1.05;;;;;;;;;;5074138;27;20058;-79
2022/05/12 10:41:03;;;;;;;6.45;1.42;;;;;;;;;;5118186;27;20040;-79
2022/05/12 10:43:39;;;;;;;2.60;1.20;;;;;;;;;;5119577;27;20047;-79
2022/05/12 10:46:24;;;;;;;2.10;1.33;;;;;;;;;;5118604;27;20043;-80
2022/05/12 10:49:19;;;;;;;4.03;1.40;;;;;;;;;;5111118;27;20035;-79
2022/05/12 10:51:59;;;;;;;3.85;2.00;;;;;;;;;;5109657;27;20574;-79
2022/05/12 10:54:46;;;;;;;2.28;1.38;;;;;;;;;;5113355;27;20051;-78
2022/05/12 10:57:18;;;;;;;3.95;1.10;;;;;;;;;;5116442;27;20073;-79
2022/05/12 11:00:12;;;;;;;2.78;1.10;;;;;;;;;;5110116;27;21351;-79
2022/05/12 11:02:54;;;;;;;2.42;1.08;;;;;;;;;;5111537;27;20138;-79
2022/05/12 11:05:52;;;;;;;4.07;0.88;;;;;;;;;;5112605;27;20127;-78
2022/05/12 11:08:31;;;;;;;3.65;1.10;;;;;;;;;;5087151;27;20472;-79
2022/05/12 11:11:08;;;;;;;1.30;1.00;;;;;;;;;;5118733;27;20097;-79
2022/05/12 11:14:10;;;;;;;5.05;1.58;;;;;;;;;;5108172;27;21145;-79
2022/05/12 11:16:54;;;;;;;1.48;0.90;;;;;;;;;;5134455;27;20039;-79
2022/05/12 11:19:23;;;;;;;4.38;1.70;;;;;;;;;;5116614;27;20583;-80
2022/05/12 11:22:18;;;;;;;5.10;1.25;;;;;;;;;;5117668;27;20092;-80
2022/05/12 11:25:07;;;;;;;5.93;1.92;;;;;;;;;;5116992;27;20043;-81
2022/05/12 11:29:41;;;;;;;3.78;1.10;;;;;;;;;;5110135;27;20106;-80
2022/05/12 11:30:51;;;;;;;5.85;1.48;;;18.10;99.90;;;;;;5137842;27;21071;-79
2022/05/12 11:33:35;;;;;;;3.35;1.63;;;21.80;94.10;;;;;;5137509;27;20035;-79
2022/05/12 11:36:05;;;;;;;2.28;1.20;;;22.00;93.80;;;;;;5115955;27;21227;-79
2022/05/12 11:39:14;;;;;;;5.15;1.25;;;22.00;93.70;;;;;;5137497;27;20521;-81
2022/05/12 11:41:50;;;;;;;2.47;1.33;;;22.10;93.30;;;;;;5134117;27;20047;-80
2022/05/12 11:44:46;;;;;;;6.22;1.40;;;22.10;93.00;;;;;;5126669;27;20051;-79
2022/05/12 11:47:20;;;;;;;5.90;1.60;;;22.00;92.50;;;;;;5116274;27;20171;-80
2022/05/12 11:50:31;;;;;;;4.85;1.33;;;22.00;92.80;;;;;;5111524;27;20027;-80
2022/05/12 11:53:27;;;;;;;3.15;1.05;;;22.10;92.70;;;;;;5073733;27;20058;-80
2022/05/12 11:56:12;;;;;;;5.18;1.20;;;22.10;92.50;;;;;;5136608;27;20366;-80
2022/05/12 11:58:48;;;;;;;2.35;0.90;;;22.20;92.50;;;;;;5118179;27;20536;-80
2022/05/12 12:01:56;;;;;;;2.28;1.00;;;22.30;92.40;;;;;;5114606;27;20053;-80
2022/05/12 12:04:49;;;;;;;3.13;1.13;;;22.40;92.00;;;;;;5136705;27;20097;-80
2022/05/12 12:07:39;;;;;;;2.50;1.02;;;22.50;91.70;;;;;;5115988;27;20164;-80
2022/05/12 12:10:51;;;;;;;3.13;1.05;;;22.60;91.70;;;;;;5109409;27;20039;-80
2022/05/12 12:13:38;;;;;;;5.35;1.35;;;22.60;91.60;;;;;;5136401;27;20115;-80
2022/05/12 12:16:21;;;;;;;3.10;1.20;;;22.60;91.40;;;;;;5107149;27;20466;-80
2022/05/12 12:19:18;;;;;;;4.13;1.75;;;22.60;91.30;;;;;;5117571;27;20058;-80
2022/05/12 12:21:56;;;;;;;2.50;1.17;;;22.70;91.30;;;;;;5107588;27;20089;-80
2022/05/12 12:24:50;;;;;;;4.38;1.05;;;22.70;91.20;;;;;;5135710;27;20047;-80
2022/05/12 12:27:47;;;;;;;1.83;0.80;;;22.70;91.10;;;;;;5109902;27;20039;-80
2022/05/12 12:30:50;;;;;;;5.68;1.58;;;22.70;91.00;;;;;;5117809;27;20667;-80
2022/05/12 12:33:31;;;;;;;3.05;0.95;;;22.80;90.80;;;;;;5108776;27;20046;-79
2022/05/12 12:36:36;;;;;;;;;;;;;;;;;;;;;
2022/05/12 12:39:16;;;;;;;2.83;1.13;;;22.80;90.60;;;;;;5135275;27;40465;-80
2022/05/12 12:41:48;;;;;;;2.03;1.00;;;23.00;90.70;;;;;;5133390;27;20513;-80
2022/05/12 12:44:32;;;;;;;3.05;1.00;;;22.90;90.40;;;;;;5129199;27;20035;-79
2022/05/12 12:47:51;;;;;;;3.00;1.20;;;22.80;90.40;;;;;;5116269;27;20047;-79
2022/05/12 12:51:09;;;;;;;1.40;0.80;;;22.80;90.10;;;;;;5110473;27;20064;-80
2022/05/12 12:56:41;;;;;;;1.92;1.00;;;22.50;90.20;;;;;;5136729;27;21266;-79
2022/05/12 12:59:28;;;;;;;2.78;1.35;;;22.80;90.30;;;;;;5116217;27;20055;-80
2022/05/12 13:02:00;;;;;;;4.40;0.93;;;22.80;90.00;;;;;;5116979;27;20123;-79
2022/05/12 13:04:51;;;;;;;5.97;1.33;;;22.70;89.80;;;;;;5117488;27;20054;-80
2022/05/12 13:07:35;;;;;;;1.73;0.90;;;22.80;89.70;;;;;;5107725;27;20332;-79
2022/05/12 13:10:17;;;;;;;2.85;1.08;;;22.70;89.60;;;;;;5134556;27;20051;-80
2022/05/12 13:13:14;;;;;;;1.30;0.70;;;22.70;89.40;;;;;;5108748;27;20118;-81
2022/05/12 13:15:53;;;;;;;2.28;0.95;;;23.00;89.60;;;;;;5135907;27;20031;-79
2022/05/12 13:18:37;;;;;;;3.35;0.90;;;22.80;89.40;;;;;;5136466;27;20071;-79
2022/05/12 13:21:11;;;;;;;4.70;1.23;;;22.80;88.90;;;;;;5115245;27;20043;-79
2022/05/12 13:23:45;;;;;;;5.30;0.95;;;22.80;89.10;;;;;;5117073;27;20661;-80
2022/05/12 13:26:19;;;;;;;2.60;0.90;;;23.00;89.00;;;;;;5133664;27;20362;-79
2022/05/12 13:28:59;;;;;;;2.67;0.95;;;23.00;88.50;;;;;;5126617;27;20058;-83
2022/05/12 13:32:00;;;;;;;7.53;1.45;;;23.10;88.70;;;;;;5083698;28;20060;-82
2022/05/12 13:38:06;;;;;;;4.60;0.98;;;23.10;88.40;;;;;;5082456;28;20172;-81
2022/05/12 13:40:51;;;;;;;3.72;0.85;;;23.10;87.80;;;;;;5084578;28;20122;-81
2022/05/12 13:43:33;;;;;;;3.13;1.20;;;22.90;87.70;;;;;;5082283;28;20050;-82
2022/05/12 13:46:45;;;;;;;3.53;0.80;;;22.90;87.90;;;;;;5065495;28;20515;-84
2022/05/12 13:49:26;;;;;;;2.63;1.33;;;22.80;88.00;;;;;;5084244;28;20067;-83
2022/05/12 13:52:22;;;;;;;;;;;22.80;88.00;;;;;;5074481;28;20060;-82
2022/05/12 13:55:08;;;;;;;7.65;2.15;;;22.80;87.90;;;;;;5065314;28;19920;-88
2022/05/12 13:58:11;;;;;;;;;;;;;;;;;;;;;
2022/05/12 14:01:06;;;;;;;1.92;1.27;;;23.00;88.10;;;;;;5133875;27;45151;-81
2022/05/12 14:03:35;;;;;;;3.03;1.00;;;23.10;87.90;;;;;;5111720;27;20189;-78
2022/05/12 14:06:32;;;;;;;2.53;1.08;;;23.10;87.60;;;;;;5131924;27;20039;-78
2022/05/12 14:09:16;;;;;;;4.53;0.95;;;23.20;87.20;;;;;;5115444;27;20133;-79
2022/05/12 14:12:17;;;;;;;3.38;1.20;;;23.10;86.80;;;;;;5138518;27;20032;-80
2022/05/12 14:20:59;;;;;;;2.25;0.85;;;23.00;86.90;;;;;;5138303;27;22404;-78
2022/05/12 14:23:30;;;;;;;2.55;0.90;;;23.10;87.00;;;;;;5119170;27;20527;-78
2022/05/12 14:26:01;;;;;;;5.33;1.20;;;23.30;86.90;;;;;;5128011;27;20114;-77
2022/05/12 14:28:50;;;;;;;2.78;1.48;;;23.30;86.80;;;;;;5137748;27;20061;-81
2022/05/12 14:31:21;;;;;;;1.30;0.82;;;23.40;86.40;;;;;;5111861;27;20059;-78
2022/05/12 14:33:47;;;;;;;2.13;0.98;;;23.30;86.10;;;;;;5119016;27;20043;-77
2022/05/12 14:36:13;;;;;;;5.28;1.35;;;23.30;85.80;;;;;;5137458;27;20050;-78
2022/05/12 14:38:39;;;;;;;1.83;1.13;;;23.30;85.60;;;;;;5135821;27;20578;-77
2022/05/12 14:41:05;;;;;;;2.22;1.13;;;23.40;85.60;;;;;;5111189;27;20050;-78
2022/05/12 14:43:31;;;;;;;3.15;1.40;;;23.50;85.60;;;;;;5092018;27;20124;-77
2022/05/12 14:45:57;;;;;;;9.68;2.05;;;23.60;85.50;;;;;;5117369;27;20570;-77
2022/05/12 14:48:24;;;;;;;4.03;0.80;;;23.50;85.10;;;;;;5116819;27;20040;-77
2022/05/12 14:50:50;;;;;;;5.13;0.98;;;23.50;85.00;;;;;;5116372;27;20114;-78
2022/05/12 14:53:16;;;;;;;1.95;1.20;;;23.60;85.10;;;;;;5116346;27;20580;-77
2022/05/12 14:55:42;;;;;;;2.83;1.30;;;23.70;85.10;;;;;;5115560;27;20040;-77
2022/05/12 14:58:10;;;;;;;2.70;1.00;;;23.70;84.60;;;;;;5114679;27;20071;-77
2022/05/12 15:00:38;;;;;;;2.50;0.90;;;23.60;84.70;;;;;;5114178;27;20653;-77